createdAt,value
2023-03-22T00:01:22.630Z,10.80
2023-03-22T00:03:50.813Z,10.80
2023-03-22T00:06:18.115Z,10.80
2023-03-22T00:08:48.051Z,10.80
2023-03-22T00:11:14.813Z,10.80
2023-03-22T00:13:42.979Z,10.80
2023-03-22T00:16:10.883Z,10.80
2023-03-22T00:18:37.954Z,10.80
2023-03-22T00:21:05.443Z,10.80
2023-03-22T00:23:32.206Z,10.90
2023-03-22T00:25:59.128Z,10.90
2023-03-22T00:28:26.040Z,10.90
2023-03-22T00:30:59.031Z,10.90
2023-03-22T00:33:27.996Z,10.90
2023-03-22T00:36:00.176Z,10.90
2023-03-22T00:38:42.618Z,11.00
2023-03-22T00:41:16.446Z,11.00
2023-03-22T00:43:45.933Z,11.00
2023-03-22T00:46:14.047Z,11.00
2023-03-22T00:48:41.657Z,11.00
2023-03-22T00:51:09.187Z,11.00
2023-03-22T00:53:39.329Z,11.00
2023-03-22T00:56:08.195Z,11.10
2023-03-22T00:58:43.596Z,11.00
2023-03-22T01:01:13.823Z,11.00
2023-03-22T01:03:42.574Z,11.00
2023-03-22T01:06:10.487Z,11.00
2023-03-22T01:08:38.577Z,11.00
2023-03-22T01:11:07.074Z,11.00
2023-03-22T01:13:34.851Z,11.00
2023-03-22T01:16:01.654Z,11.00
2023-03-22T01:18:28.508Z,10.90
2023-03-22T01:20:55.378Z,10.90
2023-03-22T01:23:22.269Z,10.90
2023-03-22T01:25:49.119Z,10.90
2023-03-22T01:28:16.023Z,10.90
2023-03-22T01:30:43.206Z,10.90
2023-03-22T01:33:10.182Z,10.90
2023-03-22T01:35:37.330Z,10.80
2023-03-22T01:38:05.775Z,10.80
2023-03-22T01:40:36.135Z,10.80
2023-03-22T01:43:03.837Z,10.80
2023-03-22T01:45:39.971Z,10.80
2023-03-22T01:48:18.611Z,10.80
2023-03-22T01:50:56.063Z,10.80
2023-03-22T01:53:25.697Z,10.80
2023-03-22T01:55:55.121Z,10.80
2023-03-22T01:58:27.612Z,10.80
2023-03-22T02:00:58.874Z,10.80
2023-03-22T02:03:56.906Z,10.80
2023-03-22T02:06:25.789Z,10.80
2023-03-22T02:09:02.682Z,10.80
2023-03-22T02:11:38.481Z,10.70
2023-03-22T02:14:17.127Z,10.70
2023-03-22T02:17:11.298Z,10.80
2023-03-22T02:20:29.808Z,10.80
2023-03-22T02:23:14.100Z,10.80
2023-03-22T02:26:17.049Z,10.70
2023-03-22T02:28:52.870Z,10.70
2023-03-22T02:31:26.415Z,10.70
2023-03-22T02:34:16.003Z,10.70
2023-03-22T02:37:15.347Z,10.70
2023-03-22T02:40:09.869Z,10.70
2023-03-22T02:42:57.723Z,10.60
2023-03-22T02:45:52.447Z,10.60
2023-03-22T02:48:28.475Z,10.50
2023-03-22T02:51:00.628Z,10.50
2023-03-22T02:53:40.664Z,10.50
2023-03-22T02:56:21.441Z,10.50
2023-03-22T02:58:53.117Z,10.50
2023-03-22T03:01:33.032Z,10.50
2023-03-22T03:04:04.705Z,10.50
2023-03-22T03:06:38.841Z,10.50
2023-03-22T03:09:08.070Z,10.50
2023-03-22T03:11:34.881Z,10.50
2023-03-22T03:14:01.647Z,10.50
2023-03-22T03:16:34.793Z,10.40
2023-03-22T03:19:20.260Z,10.40
2023-03-22T03:22:02.833Z,10.40
2023-03-22T03:24:36.422Z,10.40
2023-03-22T03:27:10.501Z,10.30
2023-03-22T03:29:46.173Z,10.40
2023-03-22T03:32:25.576Z,10.40
2023-03-22T03:34:59.299Z,10.30
2023-03-22T03:37:31.467Z,10.30
2023-03-22T03:40:09.686Z,10.20
2023-03-22T03:42:44.041Z,10.20
2023-03-22T03:45:11.852Z,10.20
2023-03-22T03:47:39.426Z,10.20
2023-03-22T03:50:08.208Z,10.10
2023-03-22T03:52:35.611Z,10.10
2023-03-22T03:55:02.401Z,10.10
2023-03-22T03:57:32.913Z,10.10
2023-03-22T03:59:59.782Z,10.10
2023-03-22T04:02:51.459Z,10.00
2023-03-22T04:05:42.380Z,10.00
2023-03-22T04:08:09.610Z,10.00
2023-03-22T04:10:36.439Z,10.10
2023-03-22T04:13:03.250Z,10.10
2023-03-22T04:15:30.754Z,10.00
2023-03-22T04:18:00.718Z,10.00
2023-03-22T04:20:30.136Z,10.00
2023-03-22T04:22:58.036Z,10.00
2023-03-22T04:25:30.195Z,10.00
2023-03-22T04:28:10.255Z,10.00
2023-03-22T04:30:38.592Z,10.00
2023-03-22T04:33:32.391Z,10.00
2023-03-22T04:36:24.208Z,10.00
2023-03-22T04:39:14.033Z,9.90
2023-03-22T04:41:45.455Z,10.00
2023-03-22T04:44:12.249Z,9.90
2023-03-22T04:46:44.370Z,9.90
2023-03-22T04:49:11.220Z,9.90
2023-03-22T04:51:40.295Z,9.90
2023-03-22T04:54:30.403Z,9.90
2023-03-22T04:56:57.347Z,9.90
2023-03-22T04:59:26.471Z,9.90
2023-03-22T05:01:53.576Z,9.90
2023-03-22T05:04:25.741Z,9.90
2023-03-22T05:06:58.662Z,9.90
2023-03-22T05:09:37.131Z,9.90
2023-03-22T05:12:04.042Z,9.90
2023-03-22T05:14:38.984Z,9.80
2023-03-22T05:17:07.165Z,9.80
2023-03-22T05:19:37.006Z,9.80
2023-03-22T05:22:03.843Z,9.80
2023-03-22T05:24:41.608Z,9.80
2023-03-22T05:27:14.108Z,9.90
2023-03-22T05:29:44.764Z,9.90
2023-03-22T05:32:19.498Z,9.90
2023-03-22T05:34:48.353Z,9.90
2023-03-22T05:37:23.570Z,9.90
2023-03-22T05:39:53.776Z,9.90
2023-03-22T05:42:24.207Z,9.90
2023-03-22T05:44:51.798Z,10.00
2023-03-22T05:47:19.917Z,10.00
2023-03-22T05:49:55.781Z,10.00
2023-03-22T05:52:24.461Z,10.10
2023-03-22T05:55:18.061Z,10.10
2023-03-22T05:57:46.604Z,10.10
2023-03-22T06:00:16.224Z,10.10
2023-03-22T06:03:03.847Z,10.20
2023-03-22T06:05:33.224Z,10.20
2023-03-22T06:08:00.152Z,10.30
2023-03-22T06:10:28.048Z,10.30
2023-03-22T06:12:55.437Z,10.30
2023-03-22T06:15:27.785Z,10.30
2023-03-22T06:18:09.240Z,10.40
2023-03-22T06:20:41.537Z,10.40
2023-03-22T06:23:14.586Z,10.40
2023-03-22T06:25:43.863Z,10.40
2023-03-22T06:28:10.855Z,10.50
2023-03-22T06:30:40.380Z,10.50
2023-03-22T06:33:34.688Z,10.50
2023-03-22T06:36:09.683Z,10.60
2023-03-22T06:38:54.020Z,10.70
2023-03-22T06:41:21.248Z,10.80
2023-03-22T06:43:48.538Z,10.80
2023-03-22T06:46:47.973Z,10.80
2023-03-22T06:49:35.250Z,10.90
2023-03-22T06:52:03.512Z,11.00
2023-03-22T06:54:30.390Z,11.00
2023-03-22T06:56:57.209Z,11.10
2023-03-22T06:59:24.176Z,11.10
2023-03-22T07:01:51.044Z,11.20
2023-03-22T07:04:18.040Z,11.20
2023-03-22T07:06:47.297Z,11.30
2023-03-22T07:09:14.256Z,11.30
2023-03-22T07:11:41.263Z,11.30
2023-03-22T07:14:09.448Z,11.40
2023-03-22T07:16:52.641Z,11.50
2023-03-22T07:19:21.064Z,11.50
2023-03-22T07:21:47.977Z,11.50
2023-03-22T07:24:16.334Z,11.50
2023-03-22T07:26:44.672Z,11.60
2023-03-22T07:29:17.188Z,11.60
2023-03-22T07:31:45.676Z,11.60
2023-03-22T07:34:20.845Z,11.70
2023-03-22T07:37:03.071Z,11.70
2023-03-22T07:39:30.542Z,11.70
2023-03-22T07:41:58.003Z,11.70
2023-03-22T07:44:24.899Z,11.60
2023-03-22T07:47:12.168Z,11.70
2023-03-22T07:49:57.784Z,11.70
2023-03-22T07:52:27.446Z,11.80
2023-03-22T07:54:54.297Z,11.80
2023-03-22T07:57:21.063Z,11.90
2023-03-22T07:59:54.310Z,12.00
2023-03-22T08:02:21.293Z,12.10
2023-03-22T08:04:56.172Z,12.20
2023-03-22T08:07:35.579Z,12.30
2023-03-22T08:10:03.411Z,12.40
2023-03-22T08:12:32.360Z,12.50
2023-03-22T08:15:07.880Z,12.50
2023-03-22T08:17:34.854Z,12.70
2023-03-22T08:20:08.731Z,12.90
2023-03-22T08:22:46.009Z,13.00
2023-03-22T08:25:18.942Z,13.10
2023-03-22T08:27:46.050Z,13.00
2023-03-22T08:30:14.595Z,13.00
2023-03-22T08:32:43.413Z,13.00
2023-03-22T08:35:11.167Z,13.00
2023-03-22T08:37:38.177Z,13.00
2023-03-22T08:40:09.464Z,12.90
2023-03-22T08:42:44.298Z,12.90
2023-03-22T08:45:11.334Z,12.90
2023-03-22T08:47:45.474Z,12.90
2023-03-22T08:50:13.206Z,13.00
2023-03-22T08:52:47.715Z,13.10
2023-03-22T08:55:39.751Z,13.10
2023-03-22T08:58:10.119Z,13.20
2023-03-22T09:00:54.475Z,13.20
2023-03-22T09:03:44.143Z,13.20
2023-03-22T09:06:11.146Z,13.30
2023-03-22T09:08:41.213Z,13.30
2023-03-22T09:11:15.644Z,13.40
2023-03-22T09:13:45.696Z,13.50
2023-03-22T09:16:13.136Z,13.60
2023-03-22T09:18:40.526Z,13.70
2023-03-22T09:21:14.694Z,13.70
2023-03-22T09:23:55.611Z,13.70
2023-03-22T09:26:28.605Z,13.70
2023-03-22T09:28:55.649Z,13.80
2023-03-22T09:31:22.531Z,13.80
2023-03-22T09:34:00.846Z,13.90
2023-03-22T09:36:27.632Z,13.90
2023-03-22T09:38:54.479Z,14.10
2023-03-22T09:41:23.913Z,14.10
2023-03-22T09:43:56.282Z,14.10
2023-03-22T09:46:31.229Z,14.10
2023-03-22T09:49:01.625Z,14.20
2023-03-22T09:51:49.646Z,14.20
2023-03-22T09:54:21.534Z,14.30
2023-03-22T09:56:55.265Z,14.30
2023-03-22T09:59:30.457Z,14.50
2023-03-22T10:02:01.280Z,14.90
2023-03-22T10:04:55.105Z,15.10
2023-03-22T10:07:34.437Z,15.30
2023-03-22T10:10:18.710Z,15.30
2023-03-22T10:13:25.812Z,15.30
2023-03-22T10:15:59.020Z,15.30
2023-03-22T10:18:35.178Z,15.30
2023-03-22T10:21:07.884Z,15.20
2023-03-22T10:23:44.141Z,15.00
2023-03-22T10:26:19.838Z,15.00
2023-03-22T10:28:56.863Z,15.00
2023-03-22T10:31:26.593Z,15.00
2023-03-22T10:34:05.286Z,15.00
2023-03-22T10:36:35.658Z,15.00
2023-03-22T10:39:08.014Z,15.10
2023-03-22T10:41:35.505Z,15.30
2023-03-22T10:44:05.375Z,15.40
2023-03-22T10:46:37.977Z,15.60
2023-03-22T10:49:06.233Z,15.70
2023-03-22T10:51:42.554Z,15.60
2023-03-22T10:54:18.813Z,15.70
2023-03-22T10:56:46.292Z,15.70
2023-03-22T10:59:51.668Z,15.70
2023-03-22T11:02:24.424Z,15.60
2023-03-22T11:04:54.391Z,15.40
2023-03-22T11:07:47.418Z,15.30
2023-03-22T11:10:22.113Z,15.30
2023-03-22T11:13:10.688Z,15.40
2023-03-22T11:15:49.629Z,15.40
2023-03-22T11:18:17.986Z,15.30
2023-03-22T11:21:00.597Z,15.10
2023-03-22T11:23:32.226Z,15.20
2023-03-22T11:26:06.417Z,15.30
2023-03-22T11:28:37.091Z,15.40
2023-03-22T11:31:13.103Z,15.40
2023-03-22T11:33:59.827Z,15.50
2023-03-22T11:36:28.279Z,15.70
2023-03-22T11:39:00.255Z,16.00
2023-03-22T11:41:31.848Z,16.10
2023-03-22T11:44:02.413Z,16.10
2023-03-22T11:46:30.855Z,16.00
2023-03-22T11:49:17.901Z,15.70
2023-03-22T11:51:45.533Z,15.60
2023-03-22T11:54:31.804Z,15.50
2023-03-22T11:57:02.733Z,15.40
2023-03-22T11:59:36.235Z,15.40
2023-03-22T12:02:23.981Z,15.40
2023-03-22T12:05:02.514Z,15.40
2023-03-22T12:07:32.530Z,15.50
2023-03-22T12:10:03.446Z,15.40
2023-03-22T12:12:36.608Z,15.30
2023-03-22T12:15:12.290Z,15.20
2023-03-22T12:17:44.003Z,15.10
2023-03-22T12:20:34.632Z,14.90
2023-03-22T12:23:02.403Z,14.80
2023-03-22T12:25:35.597Z,14.70
2023-03-22T12:28:09.662Z,14.70
2023-03-22T12:30:48.791Z,14.70
2023-03-22T12:33:24.184Z,14.70
2023-03-22T12:35:55.240Z,14.60
2023-03-22T12:38:48.287Z,14.60
2023-03-22T12:41:18.870Z,14.60
2023-03-22T12:43:54.156Z,14.60
2023-03-22T12:46:28.521Z,14.60
2023-03-22T12:49:04.468Z,14.50
2023-03-22T12:51:31.332Z,14.60
2023-03-22T12:54:00.278Z,14.60
2023-03-22T12:56:34.449Z,14.60
2023-03-22T12:59:08.490Z,14.60
2023-03-22T13:01:46.331Z,14.60
2023-03-22T13:04:36.674Z,14.60
2023-03-22T13:07:16.211Z,14.60
2023-03-22T13:09:47.017Z,14.60
2023-03-22T13:12:16.711Z,14.50
2023-03-22T13:14:56.308Z,14.40
2023-03-22T13:17:23.101Z,14.40
2023-03-22T13:19:59.948Z,14.40
2023-03-22T13:22:29.586Z,14.40
2023-03-22T13:25:14.625Z,14.20
2023-03-22T13:28:20.146Z,14.10
2023-03-22T13:30:55.532Z,14.10
2023-03-22T13:33:34.578Z,14.10
2023-03-22T13:36:24.884Z,14.00
2023-03-22T13:39:08.052Z,13.90
2023-03-22T13:41:35.713Z,13.90
2023-03-22T13:44:20.614Z,13.90
2023-03-22T13:46:51.582Z,13.90
2023-03-22T13:49:42.453Z,13.90
2023-03-22T13:52:21.468Z,13.90
2023-03-22T13:54:52.244Z,14.00
2023-03-22T13:57:59.112Z,14.00
2023-03-22T14:00:31.758Z,14.00
2023-03-22T14:03:03.498Z,14.00
2023-03-22T14:05:34.990Z,14.00
2023-03-22T14:08:04.178Z,14.00
2023-03-22T14:10:46.667Z,13.90
2023-03-22T14:13:42.189Z,13.80
2023-03-22T14:16:15.881Z,13.90
2023-03-22T14:18:46.172Z,14.00
2023-03-22T14:21:21.414Z,14.10
